createdAt,value
2022-11-02T00:01:22.415Z,18.70
2022-11-02T00:03:49.370Z,17.39
2022-11-02T00:06:16.242Z,17.74
2022-11-02T00:08:43.124Z,17.30
2022-11-02T00:11:09.982Z,18.24
2022-11-02T00:13:36.950Z,18.29
2022-11-02T00:16:10.431Z,18.24
2022-11-02T00:18:37.444Z,17.93
2022-11-02T00:21:04.881Z,18.00
2022-11-02T00:23:32.138Z,18.11
2022-11-02T00:26:02.207Z,18.22
2022-11-02T00:28:30.026Z,18.83
2022-11-02T00:30:56.909Z,18.62
2022-11-02T00:33:23.856Z,17.80
2022-11-02T00:35:50.686Z,17.64
2022-11-02T00:38:17.512Z,18.05
2022-11-02T00:40:44.362Z,18.55
2022-11-02T00:43:11.715Z,17.44
2022-11-02T00:45:38.793Z,17.54
2022-11-02T00:48:06.338Z,17.59
2022-11-02T00:50:33.550Z,17.72
2022-11-02T00:53:00.390Z,17.49
2022-11-02T00:55:27.265Z,18.16
2022-11-02T00:57:54.297Z,18.38
2022-11-02T01:00:21.280Z,18.42
2022-11-02T01:02:48.286Z,17.70
2022-11-02T01:05:15.849Z,17.20
2022-11-02T01:07:42.703Z,17.67
2022-11-02T01:10:10.782Z,17.13
2022-11-02T01:12:39.412Z,17.49
2022-11-02T01:15:08.257Z,17.58
2022-11-02T01:17:35.470Z,17.24
2022-11-02T01:20:02.781Z,17.45
2022-11-02T01:22:29.646Z,18.18
2022-11-02T01:24:56.532Z,18.51
2022-11-02T01:27:23.449Z,18.94
2022-11-02T01:29:50.332Z,18.22
2022-11-02T01:32:17.138Z,18.09
2022-11-02T01:34:44.003Z,17.22
2022-11-02T01:37:10.971Z,16.63
2022-11-02T01:39:37.826Z,17.10
2022-11-02T01:42:04.949Z,16.98
2022-11-02T01:44:34.144Z,16.35
2022-11-02T01:47:06.512Z,16.28
2022-11-02T01:49:37.235Z,16.58
2022-11-02T01:52:10.087Z,16.67
2022-11-02T01:54:44.243Z,16.83
2022-11-02T01:57:14.249Z,17.35
2022-11-02T01:59:56.358Z,16.95
2022-11-02T02:02:25.306Z,16.67
2022-11-02T02:04:56.454Z,17.29
2022-11-02T02:07:24.551Z,16.92
2022-11-02T02:09:52.403Z,16.78
2022-11-02T02:12:20.160Z,17.22
2022-11-02T02:14:47.536Z,17.16
2022-11-02T02:17:29.552Z,17.68
2022-11-02T02:20:08.682Z,17.34
2022-11-02T02:22:38.568Z,18.26
2022-11-02T02:25:34.443Z,18.29
2022-11-02T02:28:13.513Z,17.67
2022-11-02T02:30:44.893Z,17.25
2022-11-02T02:33:15.039Z,16.59
2022-11-02T02:35:55.634Z,17.49
2022-11-02T02:38:41.110Z,17.79
2022-11-02T02:41:15.182Z,17.81
2022-11-02T02:43:51.120Z,18.09
2022-11-02T02:46:46.657Z,18.04
2022-11-02T02:49:20.636Z,17.75
2022-11-02T02:51:47.631Z,17.82
2022-11-02T02:54:41.428Z,18.48
2022-11-02T02:57:11.492Z,19.08
2022-11-02T02:59:42.158Z,18.15
2022-11-02T03:02:26.254Z,18.58
2022-11-02T03:04:53.220Z,18.08
2022-11-02T03:07:33.964Z,18.13
2022-11-02T03:10:17.341Z,18.83
2022-11-02T03:13:07.750Z,18.23
2022-11-02T03:15:38.357Z,18.23
2022-11-02T03:18:26.698Z,18.82
2022-11-02T03:20:59.552Z,18.33
2022-11-02T03:23:29.126Z,18.02
2022-11-02T03:25:55.920Z,18.16
2022-11-02T03:28:48.422Z,18.13
2022-11-02T03:31:34.785Z,18.19
2022-11-02T03:34:32.529Z,18.18
2022-11-02T03:39:44.701Z,18.33
2022-11-02T03:42:14.377Z,17.80
2022-11-02T03:44:41.721Z,18.25
2022-11-02T03:47:11.864Z,18.41
2022-11-02T03:49:40.683Z,18.46
2022-11-02T03:52:10.819Z,18.37
2022-11-02T03:54:59.057Z,18.50
2022-11-02T03:57:39.641Z,18.90
2022-11-02T04:00:09.042Z,18.71
2022-11-02T04:02:38.045Z,18.60
2022-11-02T04:05:05.397Z,18.97
2022-11-02T04:07:58.357Z,18.70
2022-11-02T04:10:26.444Z,18.74
2022-11-02T04:13:11.877Z,19.08
2022-11-02T04:15:38.809Z,18.62
2022-11-02T04:18:24.124Z,18.67
2022-11-02T04:20:51.626Z,18.80
2022-11-02T04:23:45.117Z,18.96
2022-11-02T04:26:11.940Z,18.59
2022-11-02T04:28:38.750Z,19.84
2022-11-02T04:31:05.648Z,18.99
2022-11-02T04:33:35.392Z,19.21
2022-11-02T04:36:04.468Z,19.56
2022-11-02T04:38:40.602Z,19.53
2022-11-02T04:41:36.492Z,20.68
2022-11-02T04:44:04.294Z,19.58
2022-11-02T04:46:34.031Z,19.22
2022-11-02T04:49:00.950Z,19.35
2022-11-02T04:51:29.256Z,19.26
2022-11-02T04:53:57.626Z,19.35
2022-11-02T04:56:26.185Z,19.83
2022-11-02T04:58:55.249Z,19.47
2022-11-02T05:01:23.668Z,19.55
2022-11-02T05:03:51.442Z,19.80
2022-11-02T05:06:19.733Z,19.99
2022-11-02T05:08:46.959Z,20.68
2022-11-02T05:11:14.092Z,20.40
2022-11-02T05:13:41.814Z,20.27
2022-11-02T05:16:14.876Z,19.48
2022-11-02T05:18:42.292Z,19.94
2022-11-02T05:21:10.281Z,19.48
2022-11-02T05:23:37.264Z,19.53
2022-11-02T05:26:06.802Z,20.30
2022-11-02T05:28:34.256Z,19.43
2022-11-02T05:31:02.174Z,19.83
2022-11-02T05:33:30.797Z,20.76
2022-11-02T05:35:59.014Z,20.13
2022-11-02T05:38:26.566Z,19.54
2022-11-02T05:40:58.152Z,20.26
2022-11-02T05:43:25.643Z,19.60
2022-11-02T05:45:57.456Z,19.45
2022-11-02T05:48:25.126Z,19.52
2022-11-02T05:51:02.611Z,19.96
2022-11-02T05:53:34.227Z,20.66
2022-11-02T05:56:02.408Z,21.04
2022-11-02T05:58:29.577Z,20.13
2022-11-02T06:01:00.186Z,20.19
2022-11-02T06:03:27.043Z,20.01
2022-11-02T06:06:01.212Z,20.40
2022-11-02T06:08:28.221Z,20.15
2022-11-02T06:10:55.119Z,20.46
2022-11-02T06:13:22.090Z,20.48
2022-11-02T06:15:49.005Z,20.18
2022-11-02T06:18:15.868Z,20.21
2022-11-02T06:20:42.928Z,20.26
2022-11-02T06:23:09.790Z,20.40
2022-11-02T06:25:36.668Z,20.50
2022-11-02T06:28:03.547Z,20.33
2022-11-02T06:30:30.381Z,20.58
2022-11-02T06:32:58.668Z,21.61
2022-11-02T06:35:28.330Z,20.98
2022-11-02T06:37:55.176Z,20.79
2022-11-02T06:40:25.633Z,20.93
2022-11-02T06:43:15.286Z,20.84
2022-11-02T06:45:43.220Z,20.80
2022-11-02T06:48:10.088Z,20.82
2022-11-02T06:50:36.963Z,21.36
2022-11-02T06:53:04.116Z,22.13
2022-11-02T06:55:31.255Z,21.77
2022-11-02T06:57:58.133Z,21.42
2022-11-02T07:00:25.618Z,21.23
2022-11-02T07:03:10.127Z,21.51
2022-11-02T07:05:39.019Z,21.14
2022-11-02T07:08:05.940Z,20.85
2022-11-02T07:10:32.918Z,21.50
2022-11-02T07:13:00.370Z,21.39
2022-11-02T07:15:28.985Z,21.58
2022-11-02T07:17:56.669Z,20.92
2022-11-02T07:20:24.003Z,20.96
2022-11-02T07:22:59.767Z,22.44
2022-11-02T07:25:33.724Z,22.42
2022-11-02T07:28:01.586Z,22.80
2022-11-02T07:30:34.807Z,22.42
2022-11-02T07:33:01.879Z,21.84
2022-11-02T07:35:28.991Z,21.31
2022-11-02T07:38:00.868Z,21.65
2022-11-02T07:40:29.188Z,21.54
2022-11-02T07:42:57.252Z,21.41
2022-11-02T07:45:24.618Z,21.49
2022-11-02T07:47:51.766Z,22.17
2022-11-02T07:50:21.333Z,22.08
2022-11-02T07:52:52.848Z,22.21
2022-11-02T07:55:21.639Z,22.71
2022-11-02T07:57:55.723Z,22.35
2022-11-02T08:00:23.257Z,22.11
2022-11-02T08:02:54.724Z,22.14
2022-11-02T08:05:21.639Z,22.36
2022-11-02T08:07:49.152Z,22.71
2022-11-02T08:10:16.072Z,22.59
2022-11-02T08:12:43.153Z,23.37
2022-11-02T08:15:10.569Z,23.18
2022-11-02T08:17:37.406Z,23.34
2022-11-02T08:20:04.696Z,22.74
2022-11-02T08:22:31.540Z,22.37
2022-11-02T08:24:58.374Z,23.14
2022-11-02T08:27:32.971Z,23.18
2022-11-02T08:30:00.098Z,23.38
2022-11-02T08:32:26.965Z,23.73
2022-11-02T08:34:53.846Z,24.16
2022-11-02T08:37:20.706Z,23.69
2022-11-02T08:39:47.955Z,23.52
2022-11-02T08:42:14.782Z,23.34
2022-11-02T08:44:42.801Z,23.29
2022-11-02T08:47:09.968Z,23.74
2022-11-02T08:49:36.910Z,23.22
2022-11-02T08:52:03.844Z,23.11
2022-11-02T08:54:30.712Z,23.11
2022-11-02T08:56:57.578Z,23.94
2022-11-02T08:59:24.470Z,23.62
2022-11-02T09:01:51.445Z,24.03
2022-11-02T09:04:18.786Z,24.82
2022-11-02T09:06:45.617Z,24.74
2022-11-02T09:09:12.468Z,24.38
2022-11-02T09:11:39.299Z,24.72
2022-11-02T09:14:07.382Z,24.07
2022-11-02T09:16:40.196Z,22.85
2022-11-02T09:19:08.262Z,23.58
2022-11-02T09:21:35.181Z,24.69
2022-11-02T09:24:02.052Z,23.98
2022-11-02T09:26:28.986Z,24.03
2022-11-02T09:28:55.852Z,25.15
2022-11-02T09:31:22.710Z,24.82
2022-11-02T09:33:49.577Z,25.74
2022-11-02T09:36:16.468Z,25.30
2022-11-02T09:38:43.323Z,26.45
2022-11-02T09:41:20.413Z,25.67
2022-11-02T09:44:06.032Z,25.91
2022-11-02T09:46:41.332Z,26.08
2022-11-02T09:49:19.584Z,27.20
2022-11-02T09:51:51.628Z,25.75
2022-11-02T09:54:46.168Z,27.63
2022-11-02T09:57:21.196Z,26.61
2022-11-02T09:59:48.075Z,26.38
2022-11-02T10:02:57.038Z,27.88
2022-11-02T10:05:38.401Z,28.30
2022-11-02T10:08:23.668Z,29.15
2022-11-02T10:10:57.318Z,29.81
2022-11-02T10:13:42.543Z,26.72
2022-11-02T10:16:22.044Z,28.62
2022-11-02T10:18:50.616Z,28.97
2022-11-02T10:21:26.239Z,28.39
2022-11-02T10:23:55.643Z,26.53
2022-11-02T10:26:23.737Z,27.36
2022-11-02T10:29:12.528Z,28.76
2022-11-02T10:31:39.391Z,27.24
2022-11-02T10:34:14.654Z,28.04
2022-11-02T10:37:03.948Z,28.03
2022-11-02T10:39:54.357Z,27.29
2022-11-02T10:42:33.135Z,27.17
2022-11-02T10:45:05.913Z,27.69
2022-11-02T10:48:02.139Z,28.88
2022-11-02T10:50:46.732Z,27.09
2022-11-02T10:56:28.197Z,25.94
2022-11-02T10:58:59.554Z,25.87
2022-11-02T11:01:27.522Z,26.01
2022-11-02T11:03:55.977Z,24.85
2022-11-02T11:06:36.536Z,24.35
2022-11-02T11:09:16.777Z,23.90
2022-11-02T11:11:55.560Z,23.81
2022-11-02T11:20:09.442Z,23.05
2022-11-02T11:22:38.187Z,22.93
2022-11-02T11:25:11.153Z,23.33
2022-11-02T11:27:48.073Z,22.66
2022-11-02T11:33:25.200Z,22.40
2022-11-02T11:35:53.258Z,22.56
2022-11-02T11:38:23.055Z,23.03
2022-11-02T11:40:55.184Z,22.92
2022-11-02T11:43:25.258Z,23.22
2022-11-02T11:46:05.857Z,23.58
2022-11-02T11:48:39.468Z,23.64
2022-11-02T11:51:25.199Z,22.56
2022-11-02T11:54:18.734Z,22.36
2022-11-02T11:56:46.621Z,23.16
2022-11-02T11:59:27.341Z,23.05
2022-11-02T12:01:59.686Z,22.83
2022-11-02T12:04:36.368Z,23.51
2022-11-02T12:07:22.095Z,23.58
2022-11-02T12:10:15.269Z,22.62
2022-11-02T12:13:14.720Z,23.88
2022-11-02T12:16:07.708Z,24.21
2022-11-02T12:18:53.529Z,24.40
2022-11-02T12:22:02.441Z,24.12
2022-11-02T12:24:38.388Z,23.69
2022-11-02T12:27:41.673Z,23.27
2022-11-02T12:30:14.740Z,25.38
2022-11-02T12:32:50.184Z,26.22
2022-11-02T12:35:38.231Z,26.28
2022-11-02T12:38:27.307Z,26.67
2022-11-02T12:41:13.273Z,26.83
2022-11-02T12:43:45.975Z,27.21
2022-11-02T12:46:18.731Z,27.04
2022-11-02T12:49:04.117Z,25.79
2022-11-02T12:51:35.428Z,26.13
2022-11-02T12:54:11.208Z,25.55
2022-11-02T12:56:50.075Z,25.79
2022-11-02T12:59:44.049Z,25.67
2022-11-02T13:02:15.422Z,26.65
2022-11-02T13:04:46.635Z,26.86
2022-11-02T13:07:15.915Z,26.94
2022-11-02T13:09:53.500Z,27.04
2022-11-02T13:12:22.860Z,27.09
2022-11-02T13:14:51.877Z,26.03
2022-11-02T13:17:52.459Z,25.13
2022-11-02T13:20:41.025Z,25.49
2022-11-02T13:23:36.713Z,25.33
2022-11-02T13:26:08.105Z,22.37
2022-11-02T13:28:48.637Z,22.88
2022-11-02T13:31:39.427Z,22.14
2022-11-02T13:34:14.760Z,22.92
2022-11-02T13:36:42.627Z,21.53
2022-11-02T13:39:32.108Z,21.82
2022-11-02T13:42:29.230Z,21.30
2022-11-02T13:45:16.350Z,20.94
2022-11-02T13:47:49.182Z,21.47
2022-11-02T13:50:18.931Z,21.33
2022-11-02T13:52:51.000Z,21.68
2022-11-02T13:55:23.686Z,21.78
2022-11-02T13:57:54.052Z,21.18
2022-11-02T14:00:23.669Z,20.66
2022-11-02T14:02:58.181Z,20.74
2022-11-02T14:05:31.567Z,20.45
2022-11-02T14:08:06.461Z,21.12
2022-11-02T14:10:41.340Z,20.25
2022-11-02T14:13:13.900Z,20.48
2022-11-02T14:15:42.698Z,20.53
2022-11-02T14:18:09.653Z,20.24
2022-11-02T14:20:39.289Z,20.60
2022-11-02T14:23:12.241Z,21.20
2022-11-02T14:25:58.667Z,21.13
2022-11-02T14:28:34.268Z,22.64
2022-11-02T14:31:04.310Z,23.92
2022-11-02T14:33:40.389Z,23.59
2022-11-02T14:36:17.826Z,24.03
2022-11-02T14:39:14.864Z,24.31
2022-11-02T14:41:46.757Z,24.51
2022-11-02T14:44:32.548Z,23.76
2022-11-02T14:47:09.240Z,24.08
2022-11-02T14:49:40.794Z,24.78
2022-11-02T14:52:13.720Z,24.85
2022-11-02T14:55:04.684Z,25.73
2022-11-02T14:57:59.354Z,26.04
2022-11-02T15:00:35.417Z,24.93
2022-11-02T15:03:04.662Z,25.03
2022-11-02T15:05:35.902Z,25.16
2022-11-02T15:08:21.398Z,25.70
2022-11-02T15:10:48.347Z,25.05
2022-11-02T15:13:20.955Z,25.77
2022-11-02T15:15:50.823Z,25.82
2022-11-02T15:18:29.951Z,24.97
2022-11-02T15:21:12.493Z,25.31
2022-11-02T15:23:57.976Z,25.18
2022-11-02T15:26:41.809Z,24.93
2022-11-02T15:29:41.660Z,24.76
2022-11-02T15:32:17.060Z,24.37
2022-11-02T15:34:49.826Z,25.26
2022-11-02T15:37:23.195Z,25.25
2022-11-02T15:39:55.119Z,24.77
2022-11-02T15:42:49.864Z,24.73
2022-11-02T15:45:55.234Z,24.49
2022-11-02T15:48:50.191Z,25.38
2022-11-02T15:51:30.712Z,25.57
2022-11-02T15:54:14.274Z,25.05
2022-11-02T15:57:02.903Z,25.00
2022-11-02T15:59:48.203Z,24.87
2022-11-02T16:02:19.967Z,24.42
2022-11-02T16:04:48.416Z,24.67
2022-11-02T16:07:17.595Z,24.26
2022-11-02T16:09:46.788Z,23.83
2022-11-02T16:12:19.319Z,23.86
2022-11-02T16:14:52.345Z,23.46
2022-11-02T16:17:23.616Z,23.58
2022-11-02T16:19:51.050Z,23.83
2022-11-02T16:22:24.925Z,23.74
2022-11-02T16:24:53.695Z,23.28
2022-11-02T16:27:22.264Z,23.54
2022-11-02T16:29:50.067Z,23.13
2022-11-02T16:32:17.079Z,23.32
2022-11-02T16:34:44.330Z,23.90
2022-11-02T16:37:14.290Z,23.17
2022-11-02T16:39:45.489Z,23.30
2022-11-02T16:42:22.844Z,23.30
2022-11-02T16:44:55.803Z,23.41
2022-11-02T16:47:33.054Z,22.73
2022-11-02T16:50:00.036Z,22.51
2022-11-02T16:52:37.247Z,22.83
2022-11-02T16:55:30.275Z,23.11
2022-11-02T16:58:01.243Z,23.09
2022-11-02T17:00:28.229Z,23.00
2022-11-02T17:02:55.856Z,23.07
2022-11-02T17:05:26.442Z,23.50
2022-11-02T17:07:58.957Z,23.08
2022-11-02T17:10:27.738Z,23.21
2022-11-02T17:12:55.630Z,22.93
2022-11-02T17:15:24.643Z,22.67
2022-11-02T17:18:16.655Z,23.01
2022-11-02T17:20:43.575Z,22.76
2022-11-02T17:23:34.367Z,22.81
2022-11-02T17:26:22.585Z,22.51
2022-11-02T17:28:52.969Z,22.42
2022-11-02T17:31:38.232Z,22.67
2022-11-02T17:34:09.899Z,22.18
2022-11-02T17:36:44.867Z,22.47
2022-11-02T17:39:14.516Z,22.57
2022-11-02T17:42:07.603Z,22.73
2022-11-02T17:44:34.441Z,22.82
2022-11-02T17:47:01.297Z,22.35
2022-11-02T17:49:28.104Z,22.44
2022-11-02T17:51:54.988Z,22.89
2022-11-02T17:54:21.885Z,22.27
2022-11-02T17:56:48.752Z,22.35
2022-11-02T17:59:15.564Z,22.56
2022-11-02T18:01:42.600Z,22.50
2022-11-02T18:04:09.573Z,22.67
2022-11-02T18:06:36.427Z,22.58
2022-11-02T18:09:13.989Z,22.78
2022-11-02T18:11:41.311Z,22.75
2022-11-02T18:14:16.983Z,21.84
2022-11-02T18:16:44.208Z,21.47
2022-11-02T18:19:11.065Z,21.72
2022-11-02T18:21:38.180Z,21.70
2022-11-02T18:24:05.289Z,22.52
2022-11-02T18:26:32.222Z,22.27
2022-11-02T18:28:59.098Z,21.55
2022-11-02T18:31:25.933Z,21.15
2022-11-02T18:33:53.128Z,21.61
2022-11-02T18:36:20.141Z,21.31
2022-11-02T18:38:46.996Z,21.46
2022-11-02T18:41:35.023Z,21.15
2022-11-02T18:44:07.819Z,20.69
2022-11-02T18:46:38.757Z,21.02
2022-11-02T18:49:05.583Z,21.08
2022-11-02T18:51:32.543Z,21.59
2022-11-02T18:54:04.768Z,22.04
2022-11-02T18:56:31.701Z,20.62
2022-11-02T18:58:58.576Z,21.65
2022-11-02T19:01:26.531Z,21.95
2022-11-02T19:03:55.403Z,22.91
2022-11-02T19:06:41.668Z,22.64
2022-11-02T19:09:20.472Z,22.50
2022-11-02T19:11:54.830Z,23.20
2022-11-02T19:14:22.620Z,22.27
2022-11-02T19:16:49.707Z,22.53
2022-11-02T19:19:16.555Z,22.56
2022-11-02T19:21:43.568Z,22.19
2022-11-02T19:24:10.475Z,21.83
2022-11-02T19:26:37.788Z,22.53
2022-11-02T19:29:06.713Z,22.46
2022-11-02T19:31:34.965Z,22.32
2022-11-02T19:34:02.152Z,22.38
2022-11-02T19:36:28.990Z,21.83
2022-11-02T19:38:55.902Z,21.98
2022-11-02T19:41:24.048Z,21.39
2022-11-02T19:43:51.267Z,22.34
2022-11-02T19:46:20.632Z,22.07
2022-11-02T19:48:47.927Z,21.74
2022-11-02T19:51:25.982Z,21.82
2022-11-02T19:53:58.597Z,22.56
2022-11-02T19:56:27.789Z,22.17
2022-11-02T19:58:55.196Z,21.56
2022-11-02T20:01:30.594Z,20.73
2022-11-02T20:03:58.188Z,19.76
2022-11-02T20:06:32.555Z,19.00
2022-11-02T20:08:59.805Z,18.82
2022-11-02T20:11:27.657Z,18.95
2022-11-02T20:13:56.283Z,19.70
2022-11-02T20:16:23.121Z,20.77
2022-11-02T20:18:51.063Z,20.61
2022-11-02T20:21:20.869Z,19.56
2022-11-02T20:23:48.628Z,18.50
2022-11-02T20:26:20.377Z,18.45
2022-11-02T20:28:48.344Z,19.27
2022-11-02T20:31:19.816Z,19.39
2022-11-02T20:33:47.218Z,20.13
2022-11-02T20:36:14.820Z,20.39
2022-11-02T20:38:41.973Z,20.52
2022-11-02T20:41:14.354Z,20.28
2022-11-02T20:43:43.368Z,20.31
2022-11-02T20:49:19.812Z,20.37
2022-11-02T20:51:52.080Z,20.71
2022-11-02T20:54:19.999Z,21.12
2022-11-02T20:56:47.600Z,21.44
2022-11-02T20:59:14.937Z,20.70
2022-11-02T21:01:42.058Z,20.71
2022-11-02T21:04:09.094Z,20.34
2022-11-02T21:06:35.971Z,20.29
2022-11-02T21:09:09.088Z,21.16
2022-11-02T21:11:57.444Z,20.83
2022-11-02T21:14:24.695Z,20.26
2022-11-02T21:16:51.593Z,19.37
2022-11-02T21:19:18.473Z,19.17
2022-11-02T21:21:45.369Z,19.28
2022-11-02T21:24:12.486Z,20.01
2022-11-02T21:26:39.384Z,19.90
2022-11-02T21:29:06.317Z,19.48
2022-11-02T21:31:33.197Z,19.47
2022-11-02T21:34:00.147Z,20.31
2022-11-02T21:36:27.001Z,19.60
2022-11-02T21:38:54.022Z,19.92
2022-11-02T21:41:22.545Z,19.59
2022-11-02T21:43:52.114Z,19.61
2022-11-02T21:46:22.586Z,19.80
2022-11-02T21:48:49.820Z,19.75
2022-11-02T21:51:18.963Z,19.83
2022-11-02T21:53:46.849Z,19.20
2022-11-02T21:56:17.828Z,18.74
2022-11-02T21:58:46.473Z,18.87
2022-11-02T22:01:37.911Z,19.11
2022-11-02T22:04:05.410Z,19.28
2022-11-02T22:06:32.848Z,19.82
2022-11-02T22:09:00.900Z,19.46
2022-11-02T22:11:28.162Z,18.60
2022-11-02T22:13:56.952Z,18.86
2022-11-02T22:16:35.206Z,18.06
2022-11-02T22:19:03.879Z,18.36
2022-11-02T22:21:34.144Z,18.50
2022-11-02T22:24:01.213Z,18.49
2022-11-02T22:26:29.956Z,18.85
2022-11-02T22:28:57.955Z,18.61
2022-11-02T22:31:30.501Z,18.27
2022-11-02T22:33:59.498Z,18.31
2022-11-02T22:36:31.000Z,18.46
2022-11-02T22:38:59.103Z,18.61
2022-11-02T22:41:31.291Z,18.73
2022-11-02T22:44:00.260Z,18.42
2022-11-02T22:46:28.243Z,18.83
2022-11-02T22:48:56.608Z,19.22
2022-11-02T22:51:25.453Z,19.64
2022-11-02T22:53:52.487Z,19.29
2022-11-02T22:56:21.207Z,19.52
2022-11-02T22:58:48.773Z,18.58
2022-11-02T23:01:21.030Z,17.59
2022-11-02T23:03:48.619Z,18.48
2022-11-02T23:06:16.937Z,18.24
2022-11-02T23:08:45.898Z,17.77
2022-11-02T23:11:22.593Z,17.99
2022-11-02T23:14:01.447Z,18.65
2022-11-02T23:16:39.838Z,19.30
2022-11-02T23:19:25.197Z,19.54
2022-11-02T23:22:16.150Z,19.04
2022-11-02T23:25:12.065Z,19.25
2022-11-02T23:28:14.569Z,19.28
2022-11-02T23:31:00.588Z,19.15
2022-11-02T23:33:32.103Z,18.66
2022-11-02T23:36:12.667Z,18.77
2022-11-02T23:38:59.393Z,19.05
2022-11-02T23:41:26.629Z,18.71
2022-11-02T23:44:12.007Z,19.39
2022-11-02T23:46:40.059Z,18.88
2022-11-02T23:49:07.202Z,18.44
2022-11-02T23:51:52.452Z,18.38
2022-11-02T23:54:37.912Z,18.54
2022-11-02T23:57:04.750Z,18.77
2022-11-02T23:59:31.641Z,18.72
